sensor_id;sensor_type;location;lat;lon;timestamp;temperature;humidity
18085;DHT22;9169;44.492;11.372;2023-09-19T00:00:38;28.10;46.40
18085;DHT22;9169;44.492;11.372;2023-09-19T00:03:09;28.10;46.60
18085;DHT22;9169;44.492;11.372;2023-09-19T00:05:39;28.10;46.60
18085;DHT22;9169;44.492;11.372;2023-09-19T00:08:12;28.10;46.60
18085;DHT22;9169;44.492;11.372;2023-09-19T00:10:44;28.00;46.60
18085;DHT22;9169;44.492;11.372;2023-09-19T00:13:12;28.10;46.70
18085;DHT22;9169;44.492;11.372;2023-09-19T00:15:43;28.00;46.80
18085;DHT22;9169;44.492;11.372;2023-09-19T00:18:16;28.00;46.80
18085;DHT22;9169;44.492;11.372;2023-09-19T00:20:46;28.00;46.90
18085;DHT22;9169;44.492;11.372;2023-09-19T00:23:17;28.00;46.90
18085;DHT22;9169;44.492;11.372;2023-09-19T00:25:48;28.00;46.90
18085;DHT22;9169;44.492;11.372;2023-09-19T00:28:17;27.90;46.90
18085;DHT22;9169;44.492;11.372;2023-09-19T00:30:47;27.90;47.50
18085;DHT22;9169;44.492;11.372;2023-09-19T00:33:18;27.90;47.60
18085;DHT22;9169;44.492;11.372;2023-09-19T00:35:48;27.90;47.10
18085;DHT22;9169;44.492;11.372;2023-09-19T00:38:18;27.80;47.10
18085;DHT22;9169;44.492;11.372;2023-09-19T00:40:51;27.80;47.10
18085;DHT22;9169;44.492;11.372;2023-09-19T00:43:20;27.80;47.30
18085;DHT22;9169;44.492;11.372;2023-09-19T00:45:53;27.80;47.30
18085;DHT22;9169;44.492;11.372;2023-09-19T00:48:24;27.70;47.30
18085;DHT22;9169;44.492;11.372;2023-09-19T00:50:55;27.70;47.40
18085;DHT22;9169;44.492;11.372;2023-09-19T00:53:25;27.70;47.50
18085;DHT22;9169;44.492;11.372;2023-09-19T00:55:56;27.70;47.50
18085;DHT22;9169;44.492;11.372;2023-09-19T00:58:24;27.60;47.50
18085;DHT22;9169;44.492;11.372;2023-09-19T01:00:53;27.60;47.50
18085;DHT22;9169;44.492;11.372;2023-09-19T01:03:23;27.60;47.60
18085;DHT22;9169;44.492;11.372;2023-09-19T01:05:52;27.60;47.70
18085;DHT22;9169;44.492;11.372;2023-09-19T01:08:20;27.50;47.70
18085;DHT22;9169;44.492;11.372;2023-09-19T01:10:52;27.50;47.80
18085;DHT22;9169;44.492;11.372;2023-09-19T01:13:31;27.40;47.90
18085;DHT22;9169;44.492;11.372;2023-09-19T01:16:07;27.40;47.90
18085;DHT22;9169;44.492;11.372;2023-09-19T01:18:47;27.40;47.90
18085;DHT22;9169;44.492;11.372;2023-09-19T01:21:26;27.40;48.00
18085;DHT22;9169;44.492;11.372;2023-09-19T01:24:16;27.30;48.00
18085;DHT22;9169;44.492;11.372;2023-09-19T01:27:12;27.30;48.00
18085;DHT22;9169;44.492;11.372;2023-09-19T01:29:49;27.30;48.10
18085;DHT22;9169;44.492;11.372;2023-09-19T01:32:21;27.30;48.10
18085;DHT22;9169;44.492;11.372;2023-09-19T01:34:55;27.20;48.00
18085;DHT22;9169;44.492;11.372;2023-09-19T01:37:26;27.20;48.10
18085;DHT22;9169;44.492;11.372;2023-09-19T01:39:58;27.20;48.20
18085;DHT22;9169;44.492;11.372;2023-09-19T01:42:37;27.20;48.30
18085;DHT22;9169;44.492;11.372;2023-09-19T01:45:12;27.20;48.30
18085;DHT22;9169;44.492;11.372;2023-09-19T01:47:49;27.10;48.20
18085;DHT22;9169;44.492;11.372;2023-09-19T01:50:26;27.10;48.20
18085;DHT22;9169;44.492;11.372;2023-09-19T01:53:05;27.10;48.30
18085;DHT22;9169;44.492;11.372;2023-09-19T01:55:40;27.10;48.20
18085;DHT22;9169;44.492;11.372;2023-09-19T01:58:16;27.10;48.20
18085;DHT22;9169;44.492;11.372;2023-09-19T02:00:48;27.10;48.30
18085;DHT22;9169;44.492;11.372;2023-09-19T02:03:21;27.10;48.20
18085;DHT22;9169;44.492;11.372;2023-09-19T02:05:51;27.00;48.10
18085;DHT22;9169;44.492;11.372;2023-09-19T02:08:22;27.00;48.10
18085;DHT22;9169;44.492;11.372;2023-09-19T02:10:52;27.00;48.20
18085;DHT22;9169;44.492;11.372;2023-09-19T02:13:22;27.00;48.30
18085;DHT22;9169;44.492;11.372;2023-09-19T02:15:51;27.00;48.40
18085;DHT22;9169;44.492;11.372;2023-09-19T02:18:21;27.00;48.40
18085;DHT22;9169;44.492;11.372;2023-09-19T02:20:50;26.90;48.40
18085;DHT22;9169;44.492;11.372;2023-09-19T02:23:20;26.90;48.50
18085;DHT22;9169;44.492;11.372;2023-09-19T02:25:52;26.80;48.40
18085;DHT22;9169;44.492;11.372;2023-09-19T02:28:21;26.90;48.50
18085;DHT22;9169;44.492;11.372;2023-09-19T02:30:51;26.80;48.50
18085;DHT22;9169;44.492;11.372;2023-09-19T02:33:21;26.80;48.40
18085;DHT22;9169;44.492;11.372;2023-09-19T02:35:55;26.80;48.50
18085;DHT22;9169;44.492;11.372;2023-09-19T02:38:25;26.80;48.90
18085;DHT22;9169;44.492;11.372;2023-09-19T02:40:54;26.70;48.30
18085;DHT22;9169;44.492;11.372;2023-09-19T02:43:23;26.80;48.50
18085;DHT22;9169;44.492;11.372;2023-09-19T02:45:53;26.70;48.50
18085;DHT22;9169;44.492;11.372;2023-09-19T02:48:23;26.70;48.40
18085;DHT22;9169;44.492;11.372;2023-09-19T02:50:53;26.70;48.40
18085;DHT22;9169;44.492;11.372;2023-09-19T02:53:22;26.60;48.40
18085;DHT22;9169;44.492;11.372;2023-09-19T02:55:51;26.60;48.40
18085;DHT22;9169;44.492;11.372;2023-09-19T02:58:21;26.60;48.60
18085;DHT22;9169;44.492;11.372;2023-09-19T03:00:52;26.60;48.70
18085;DHT22;9169;44.492;11.372;2023-09-19T03:03:25;26.60;48.70
18085;DHT22;9169;44.492;11.372;2023-09-19T03:05:57;26.60;48.80
18085;DHT22;9169;44.492;11.372;2023-09-19T03:08:26;26.60;48.90
18085;DHT22;9169;44.492;11.372;2023-09-19T03:10:55;26.50;48.90
18085;DHT22;9169;44.492;11.372;2023-09-19T03:13:24;26.50;48.90
18085;DHT22;9169;44.492;11.372;2023-09-19T03:15:54;26.40;49.00
18085;DHT22;9169;44.492;11.372;2023-09-19T03:18:28;26.40;49.00
18085;DHT22;9169;44.492;11.372;2023-09-19T03:21:00;26.40;48.90
18085;DHT22;9169;44.492;11.372;2023-09-19T03:23:29;26.40;49.00
18085;DHT22;9169;44.492;11.372;2023-09-19T03:25:58;26.40;49.00
18085;DHT22;9169;44.492;11.372;2023-09-19T03:28:33;26.30;49.00
18085;DHT22;9169;44.492;11.372;2023-09-19T03:31:05;26.30;49.00
18085;DHT22;9169;44.492;11.372;2023-09-19T03:33:37;26.30;49.10
18085;DHT22;9169;44.492;11.372;2023-09-19T03:36:06;26.20;49.10
18085;DHT22;9169;44.492;11.372;2023-09-19T03:38:36;26.20;49.10
18085;DHT22;9169;44.492;11.372;2023-09-19T03:41:04;26.20;49.20
18085;DHT22;9169;44.492;11.372;2023-09-19T03:43:36;26.20;49.30
18085;DHT22;9169;44.492;11.372;2023-09-19T03:46:05;26.20;49.30
18085;DHT22;9169;44.492;11.372;2023-09-19T03:48:38;26.20;49.30
18085;DHT22;9169;44.492;11.372;2023-09-19T03:51:07;26.20;49.40
18085;DHT22;9169;44.492;11.372;2023-09-19T03:53:36;26.20;49.50
18085;DHT22;9169;44.492;11.372;2023-09-19T03:56:05;26.10;49.40
18085;DHT22;9169;44.492;11.372;2023-09-19T03:58:33;26.10;49.30
18085;DHT22;9169;44.492;11.372;2023-09-19T04:01:06;26.20;49.50
18085;DHT22;9169;44.492;11.372;2023-09-19T04:03:37;26.10;49.40
18085;DHT22;9169;44.492;11.372;2023-09-19T04:06:14;26.10;49.50
18085;DHT22;9169;44.492;11.372;2023-09-19T04:08:43;26.10;49.70
18085;DHT22;9169;44.492;11.372;2023-09-19T04:11:14;26.00;49.70
18085;DHT22;9169;44.492;11.372;2023-09-19T04:13:43;26.00;49.70
18085;DHT22;9169;44.492;11.372;2023-09-19T04:16:11;26.00;49.80
18085;DHT22;9169;44.492;11.372;2023-09-19T04:18:42;26.00;50.50
18085;DHT22;9169;44.492;11.372;2023-09-19T04:21:10;25.90;50.00
18085;DHT22;9169;44.492;11.372;2023-09-19T04:23:39;25.90;50.10
18085;DHT22;9169;44.492;11.372;2023-09-19T04:26:08;25.80;50.00
18085;DHT22;9169;44.492;11.372;2023-09-19T04:28:37;25.90;50.10
18085;DHT22;9169;44.492;11.372;2023-09-19T04:31:06;25.90;50.10
18085;DHT22;9169;44.492;11.372;2023-09-19T04:33:37;25.80;50.00
18085;DHT22;9169;44.492;11.372;2023-09-19T04:36:08;25.80;50.10
18085;DHT22;9169;44.492;11.372;2023-09-19T04:38:41;25.80;50.10
18085;DHT22;9169;44.492;11.372;2023-09-19T04:41:11;25.80;50.10
18085;DHT22;9169;44.492;11.372;2023-09-19T04:43:40;25.80;50.20
18085;DHT22;9169;44.492;11.372;2023-09-19T04:46:09;25.80;50.20
18085;DHT22;9169;44.492;11.372;2023-09-19T04:48:41;25.80;50.30
18085;DHT22;9169;44.492;11.372;2023-09-19T04:51:11;25.70;50.30
18085;DHT22;9169;44.492;11.372;2023-09-19T04:53:41;25.70;50.30
18085;DHT22;9169;44.492;11.372;2023-09-19T04:56:10;25.70;50.40
18085;DHT22;9169;44.492;11.372;2023-09-19T04:58:39;25.70;50.40
18085;DHT22;9169;44.492;11.372;2023-09-19T05:01:07;25.70;50.40
18085;DHT22;9169;44.492;11.372;2023-09-19T05:03:39;25.70;50.40
18085;DHT22;9169;44.492;11.372;2023-09-19T05:06:08;25.70;50.40
18085;DHT22;9169;44.492;11.372;2023-09-19T05:08:38;25.70;50.50
18085;DHT22;9169;44.492;11.372;2023-09-19T05:11:07;25.70;50.50
18085;DHT22;9169;44.492;11.372;2023-09-19T05:13:36;25.60;50.50
18085;DHT22;9169;44.492;11.372;2023-09-19T05:16:05;25.60;50.50
18085;DHT22;9169;44.492;11.372;2023-09-19T05:18:37;25.60;50.80
18085;DHT22;9169;44.492;11.372;2023-09-19T05:21:06;25.60;50.90
18085;DHT22;9169;44.492;11.372;2023-09-19T05:23:35;25.50;50.90
18085;DHT22;9169;44.492;11.372;2023-09-19T05:26:05;25.50;50.90
18085;DHT22;9169;44.492;11.372;2023-09-19T05:28:34;25.50;50.90
18085;DHT22;9169;44.492;11.372;2023-09-19T05:31:03;25.50;51.00
18085;DHT22;9169;44.492;11.372;2023-09-19T05:33:32;25.50;51.00
18085;DHT22;9169;44.492;11.372;2023-09-19T05:36:02;25.50;51.10
18085;DHT22;9169;44.492;11.372;2023-09-19T05:38:31;25.50;51.10
18085;DHT22;9169;44.492;11.372;2023-09-19T05:41:00;25.40;51.20
18085;DHT22;9169;44.492;11.372;2023-09-19T05:43:30;25.40;51.30
18085;DHT22;9169;44.492;11.372;2023-09-19T05:46:00;25.40;51.30
18085;DHT22;9169;44.492;11.372;2023-09-19T05:48:28;25.40;51.30
18085;DHT22;9169;44.492;11.372;2023-09-19T05:50:57;25.50;51.40
18085;DHT22;9169;44.492;11.372;2023-09-19T05:53:26;25.50;51.50
18085;DHT22;9169;44.492;11.372;2023-09-19T05:55:55;25.40;51.40
18085;DHT22;9169;44.492;11.372;2023-09-19T05:58:24;25.40;51.50
18085;DHT22;9169;44.492;11.372;2023-09-19T06:00:54;25.40;51.40
18085;DHT22;9169;44.492;11.372;2023-09-19T06:03:23;25.50;51.60
18085;DHT22;9169;44.492;11.372;2023-09-19T06:05:51;25.50;51.50
18085;DHT22;9169;44.492;11.372;2023-09-19T06:08:24;25.50;51.60
18085;DHT22;9169;44.492;11.372;2023-09-19T06:10:53;25.50;51.60
18085;DHT22;9169;44.492;11.372;2023-09-19T06:13:22;25.60;51.70
18085;DHT22;9169;44.492;11.372;2023-09-19T06:15:56;25.60;51.60
18085;DHT22;9169;44.492;11.372;2023-09-19T06:18:25;25.60;51.60
18085;DHT22;9169;44.492;11.372;2023-09-19T06:20:57;25.60;51.70
18085;DHT22;9169;44.492;11.372;2023-09-19T06:23:25;25.60;51.70
18085;DHT22;9169;44.492;11.372;2023-09-19T06:25:56;25.70;51.60
18085;DHT22;9169;44.492;11.372;2023-09-19T06:28:25;25.70;51.80
18085;DHT22;9169;44.492;11.372;2023-09-19T06:30:56;25.80;52.00
18085;DHT22;9169;44.492;11.372;2023-09-19T06:33:25;25.80;52.10
18085;DHT22;9169;44.492;11.372;2023-09-19T06:35:54;25.80;52.10
18085;DHT22;9169;44.492;11.372;2023-09-19T06:38:26;25.90;52.10
18085;DHT22;9169;44.492;11.372;2023-09-19T06:40:55;25.90;52.00
18085;DHT22;9169;44.492;11.372;2023-09-19T06:43:24;26.00;52.00
18085;DHT22;9169;44.492;11.372;2023-09-19T06:45:53;26.00;52.00
18085;DHT22;9169;44.492;11.372;2023-09-19T06:48:24;26.00;51.90
18085;DHT22;9169;44.492;11.372;2023-09-19T06:50:53;26.00;51.70
18085;DHT22;9169;44.492;11.372;2023-09-19T06:53:23;26.10;51.80
18085;DHT22;9169;44.492;11.372;2023-09-19T06:55:52;26.20;51.80
18085;DHT22;9169;44.492;11.372;2023-09-19T06:58:21;26.20;51.80
18085;DHT22;9169;44.492;11.372;2023-09-19T07:00:50;26.30;51.90
18085;DHT22;9169;44.492;11.372;2023-09-19T07:03:18;26.30;52.00
18085;DHT22;9169;44.492;11.372;2023-09-19T07:05:50;26.40;52.10
18085;DHT22;9169;44.492;11.372;2023-09-19T07:08:19;26.40;52.10
18085;DHT22;9169;44.492;11.372;2023-09-19T07:10:48;26.50;52.10
18085;DHT22;9169;44.492;11.372;2023-09-19T07:13:20;26.60;52.10
18085;DHT22;9169;44.492;11.372;2023-09-19T07:15:48;26.60;51.90
18085;DHT22;9169;44.492;11.372;2023-09-19T07:18:17;26.60;51.80
18085;DHT22;9169;44.492;11.372;2023-09-19T07:20:51;26.70;51.80
18085;DHT22;9169;44.492;11.372;2023-09-19T07:23:20;26.70;51.60
18085;DHT22;9169;44.492;11.372;2023-09-19T07:25:50;26.80;51.50
18085;DHT22;9169;44.492;11.372;2023-09-19T07:28:21;26.90;51.40
18085;DHT22;9169;44.492;11.372;2023-09-19T07:30:50;26.90;51.30
18085;DHT22;9169;44.492;11.372;2023-09-19T07:33:19;26.90;51.20
18085;DHT22;9169;44.492;11.372;2023-09-19T07:35:48;27.00;51.00
18085;DHT22;9169;44.492;11.372;2023-09-19T07:38:18;27.00;50.60
18085;DHT22;9169;44.492;11.372;2023-09-19T07:40:48;27.10;50.50
18085;DHT22;9169;44.492;11.372;2023-09-19T07:43:16;27.10;50.60
18085;DHT22;9169;44.492;11.372;2023-09-19T07:45:45;27.20;50.40
18085;DHT22;9169;44.492;11.372;2023-09-19T07:48:14;27.30;50.10
18085;DHT22;9169;44.492;11.372;2023-09-19T07:50:43;27.30;49.80
18085;DHT22;9169;44.492;11.372;2023-09-19T07:53:12;27.40;49.70
18085;DHT22;9169;44.492;11.372;2023-09-19T07:55:45;27.40;49.60
18085;DHT22;9169;44.492;11.372;2023-09-19T07:58:15;27.50;49.20
18085;DHT22;9169;44.492;11.372;2023-09-19T08:00:44;27.60;49.10
18085;DHT22;9169;44.492;11.372;2023-09-19T08:03:13;27.80;49.10
18085;DHT22;9169;44.492;11.372;2023-09-19T08:05:44;27.90;48.80
18085;DHT22;9169;44.492;11.372;2023-09-19T08:08:13;28.00;48.70
18085;DHT22;9169;44.492;11.372;2023-09-19T08:10:42;28.10;48.60
18085;DHT22;9169;44.492;11.372;2023-09-19T08:13:14;28.10;48.40
18085;DHT22;9169;44.492;11.372;2023-09-19T08:15:45;28.10;48.20
18085;DHT22;9169;44.492;11.372;2023-09-19T08:18:14;28.20;48.30
18085;DHT22;9169;44.492;11.372;2023-09-19T08:20:42;28.20;48.30
18085;DHT22;9169;44.492;11.372;2023-09-19T08:23:13;28.20;48.40
18085;DHT22;9169;44.492;11.372;2023-09-19T08:25:42;28.30;48.50
18085;DHT22;9169;44.492;11.372;2023-09-19T08:28:11;28.30;48.20
18085;DHT22;9169;44.492;11.372;2023-09-19T08:30:46;28.40;48.30
18085;DHT22;9169;44.492;11.372;2023-09-19T08:33:15;28.40;48.20
18085;DHT22;9169;44.492;11.372;2023-09-19T08:35:44;28.40;48.20
18085;DHT22;9169;44.492;11.372;2023-09-19T08:38:13;28.50;48.20
18085;DHT22;9169;44.492;11.372;2023-09-19T08:40:45;28.50;48.10
18085;DHT22;9169;44.492;11.372;2023-09-19T08:43:14;28.50;48.20
18085;DHT22;9169;44.492;11.372;2023-09-19T08:45:43;28.50;48.50
18085;DHT22;9169;44.492;11.372;2023-09-19T08:48:20;28.50;48.60
18085;DHT22;9169;44.492;11.372;2023-09-19T08:50:52;28.60;48.90
18085;DHT22;9169;44.492;11.372;2023-09-19T08:53:27;28.60;49.00
18085;DHT22;9169;44.492;11.372;2023-09-19T08:56:00;28.60;49.10
18085;DHT22;9169;44.492;11.372;2023-09-19T08:58:36;28.60;49.10
18085;DHT22;9169;44.492;11.372;2023-09-19T09:01:08;28.60;49.10
18085;DHT22;9169;44.492;11.372;2023-09-19T09:03:40;28.60;49.10
18085;DHT22;9169;44.492;11.372;2023-09-19T09:06:11;28.70;49.00
18085;DHT22;9169;44.492;11.372;2023-09-19T09:08:43;28.70;48.80
18085;DHT22;9169;44.492;11.372;2023-09-19T09:11:13;28.70;48.80
18085;DHT22;9169;44.492;11.372;2023-09-19T09:13:44;28.70;48.80
18085;DHT22;9169;44.492;11.372;2023-09-19T09:16:13;28.70;49.00
18085;DHT22;9169;44.492;11.372;2023-09-19T09:18:47;28.80;49.00
18085;DHT22;9169;44.492;11.372;2023-09-19T09:21:20;28.80;48.90
18085;DHT22;9169;44.492;11.372;2023-09-19T09:23:49;28.80;49.30
18085;DHT22;9169;44.492;11.372;2023-09-19T09:26:41;28.90;48.80
18085;DHT22;9169;44.492;11.372;2023-09-19T09:29:11;28.90;48.70
18085;DHT22;9169;44.492;11.372;2023-09-19T09:31:41;28.90;48.70
18085;DHT22;9169;44.492;11.372;2023-09-19T09:34:11;29.00;48.90
18085;DHT22;9169;44.492;11.372;2023-09-19T09:36:41;29.20;49.20
18085;DHT22;9169;44.492;11.372;2023-09-19T09:39:10;29.90;49.50
18085;DHT22;9169;44.492;11.372;2023-09-19T09:41:46;30.80;49.20
18085;DHT22;9169;44.492;11.372;2023-09-19T09:44:16;31.80;48.40
18085;DHT22;9169;44.492;11.372;2023-09-19T09:46:49;32.70;48.10
18085;DHT22;9169;44.492;11.372;2023-09-19T09:49:49;33.60;46.80
18085;DHT22;9169;44.492;11.372;2023-09-19T09:52:44;34.50;45.40
18085;DHT22;9169;44.492;11.372;2023-09-19T09:55:13;35.30;44.80
18085;DHT22;9169;44.492;11.372;2023-09-19T09:57:45;35.80;44.30
18085;DHT22;9169;44.492;11.372;2023-09-19T10:00:14;36.40;43.40
18085;DHT22;9169;44.492;11.372;2023-09-19T10:02:47;36.90;42.70
18085;DHT22;9169;44.492;11.372;2023-09-19T10:05:19;37.30;42.30
18085;DHT22;9169;44.492;11.372;2023-09-19T10:07:55;37.70;41.40
18085;DHT22;9169;44.492;11.372;2023-09-19T10:10:31;38.10;41.10
18085;DHT22;9169;44.492;11.372;2023-09-19T10:13:12;38.50;40.50
18085;DHT22;9169;44.492;11.372;2023-09-19T10:15:43;38.90;40.10
18085;DHT22;9169;44.492;11.372;2023-09-19T10:18:20;39.30;39.60
18085;DHT22;9169;44.492;11.372;2023-09-19T10:20:51;39.60;38.80
18085;DHT22;9169;44.492;11.372;2023-09-19T10:23:22;39.90;38.50
18085;DHT22;9169;44.492;11.372;2023-09-19T10:25:53;40.20;38.50
18085;DHT22;9169;44.492;11.372;2023-09-19T10:28:22;40.50;38.00
18085;DHT22;9169;44.492;11.372;2023-09-19T10:30:56;40.80;37.60
18085;DHT22;9169;44.492;11.372;2023-09-19T10:33:26;41.00;37.10
18085;DHT22;9169;44.492;11.372;2023-09-19T10:35:59;41.40;37.10
18085;DHT22;9169;44.492;11.372;2023-09-19T10:38:29;41.70;36.60
18085;DHT22;9169;44.492;11.372;2023-09-19T10:41:00;42.10;36.00
18085;DHT22;9169;44.492;11.372;2023-09-19T10:43:31;42.40;35.70
18085;DHT22;9169;44.492;11.372;2023-09-19T10:46:03;42.70;35.40
18085;DHT22;9169;44.492;11.372;2023-09-19T10:48:35;42.90;35.00
18085;DHT22;9169;44.492;11.372;2023-09-19T10:51:10;43.00;34.40
18085;DHT22;9169;44.492;11.372;2023-09-19T10:53:45;43.20;34.20
18085;DHT22;9169;44.492;11.372;2023-09-19T10:56:19;43.30;34.60
18085;DHT22;9169;44.492;11.372;2023-09-19T10:58:49;43.50;33.60
18085;DHT22;9169;44.492;11.372;2023-09-19T11:01:18;43.70;34.30
18085;DHT22;9169;44.492;11.372;2023-09-19T11:04:21;43.60;33.50
18085;DHT22;9169;44.492;11.372;2023-09-19T11:07:01;43.70;33.00
18085;DHT22;9169;44.492;11.372;2023-09-19T11:09:49;43.80;32.70
18085;DHT22;9169;44.492;11.372;2023-09-19T11:12:48;44.00;32.80
18085;DHT22;9169;44.492;11.372;2023-09-19T11:18:51;44.30;32.10
18085;DHT22;9169;44.492;11.372;2023-09-19T11:21:54;44.40;32.00
18085;DHT22;9169;44.492;11.372;2023-09-19T11:24:32;44.60;32.30
18085;DHT22;9169;44.492;11.372;2023-09-19T11:27:14;44.70;31.90
18085;DHT22;9169;44.492;11.372;2023-09-19T11:29:44;44.80;31.70
18085;DHT22;9169;44.492;11.372;2023-09-19T11:38:57;43.90;31.60
18085;DHT22;9169;44.492;11.372;2023-09-19T11:41:47;44.10;31.60
18085;DHT22;9169;44.492;11.372;2023-09-19T11:44:34;44.30;31.80
18085;DHT22;9169;44.492;11.372;2023-09-19T11:47:08;44.60;31.40
18085;DHT22;9169;44.492;11.372;2023-09-19T11:49:40;44.90;31.70
18085;DHT22;9169;44.492;11.372;2023-09-19T11:52:10;45.10;30.60
18085;DHT22;9169;44.492;11.372;2023-09-19T11:54:41;45.30;31.00
18085;DHT22;9169;44.492;11.372;2023-09-19T11:57:20;45.50;30.70
18085;DHT22;9169;44.492;11.372;2023-09-19T11:59:49;45.70;30.20
18085;DHT22;9169;44.492;11.372;2023-09-19T12:02:34;45.80;30.40
18085;DHT22;9169;44.492;11.372;2023-09-19T12:05:08;45.90;29.90
18085;DHT22;9169;44.492;11.372;2023-09-19T12:07:42;45.90;30.20
18085;DHT22;9169;44.492;11.372;2023-09-19T12:10:15;45.90;29.60
18085;DHT22;9169;44.492;11.372;2023-09-19T12:12:48;45.90;29.90
18085;DHT22;9169;44.492;11.372;2023-09-19T12:15:23;45.70;29.40
18085;DHT22;9169;44.492;11.372;2023-09-19T12:17:55;45.50;29.90
18085;DHT22;9169;44.492;11.372;2023-09-19T12:20:39;45.70;30.10
18085;DHT22;9169;44.492;11.372;2023-09-19T12:23:13;45.80;30.00
18085;DHT22;9169;44.492;11.372;2023-09-19T12:25:43;45.70;29.90
18085;DHT22;9169;44.492;11.372;2023-09-19T12:28:15;45.70;29.80
18085;DHT22;9169;44.492;11.372;2023-09-19T12:30:45;45.90;29.60
18085;DHT22;9169;44.492;11.372;2023-09-19T12:33:17;46.00;29.60
18085;DHT22;9169;44.492;11.372;2023-09-19T12:35:47;46.10;29.20
18085;DHT22;9169;44.492;11.372;2023-09-19T12:38:24;46.00;29.00
18085;DHT22;9169;44.492;11.372;2023-09-19T12:40:53;45.70;28.90
18085;DHT22;9169;44.492;11.372;2023-09-19T12:43:23;45.30;29.10
18085;DHT22;9169;44.492;11.372;2023-09-19T12:45:52;44.80;28.80
18085;DHT22;9169;44.492;11.372;2023-09-19T12:48:22;44.00;29.30
18085;DHT22;9169;44.492;11.372;2023-09-19T12:51:03;43.70;29.90
18085;DHT22;9169;44.492;11.372;2023-09-19T12:53:36;43.70;30.00
18085;DHT22;9169;44.492;11.372;2023-09-19T12:56:08;43.90;30.50
18085;DHT22;9169;44.492;11.372;2023-09-19T12:58:53;44.20;30.50
18085;DHT22;9169;44.492;11.372;2023-09-19T13:01:23;44.40;30.00
18085;DHT22;9169;44.492;11.372;2023-09-19T13:04:13;44.60;30.10
18085;DHT22;9169;44.492;11.372;2023-09-19T13:06:46;44.70;30.00
18085;DHT22;9169;44.492;11.372;2023-09-19T13:09:16;45.00;30.00
18085;DHT22;9169;44.492;11.372;2023-09-19T13:11:45;45.10;29.90
18085;DHT22;9169;44.492;11.372;2023-09-19T13:14:19;45.10;29.30
18085;DHT22;9169;44.492;11.372;2023-09-19T13:16:58;45.10;29.50
18085;DHT22;9169;44.492;11.372;2023-09-19T13:19:38;45.40;29.30
18085;DHT22;9169;44.492;11.372;2023-09-19T13:22:36;45.80;29.50
18085;DHT22;9169;44.492;11.372;2023-09-19T13:25:07;46.20;29.20
18085;DHT22;9169;44.492;11.372;2023-09-19T13:27:42;46.50;29.40
18085;DHT22;9169;44.492;11.372;2023-09-19T13:30:14;46.80;29.10
18085;DHT22;9169;44.492;11.372;2023-09-19T13:32:43;46.90;28.70
18085;DHT22;9169;44.492;11.372;2023-09-19T13:35:14;47.00;28.90
18085;DHT22;9169;44.492;11.372;2023-09-19T13:37:43;47.00;28.60
18085;DHT22;9169;44.492;11.372;2023-09-19T13:40:16;46.90;28.50
18085;DHT22;9169;44.492;11.372;2023-09-19T13:42:45;46.90;28.60
18085;DHT22;9169;44.492;11.372;2023-09-19T13:45:15;46.60;28.30
18085;DHT22;9169;44.492;11.372;2023-09-19T13:47:45;46.30;28.30
18085;DHT22;9169;44.492;11.372;2023-09-19T13:50:14;46.00;28.70
18085;DHT22;9169;44.492;11.372;2023-09-19T13:52:44;45.90;28.80
18085;DHT22;9169;44.492;11.372;2023-09-19T13:55:14;45.70;28.90
18085;DHT22;9169;44.492;11.372;2023-09-19T13:57:47;45.60;28.70
18085;DHT22;9169;44.492;11.372;2023-09-19T14:00:18;45.20;28.70
18085;DHT22;9169;44.492;11.372;2023-09-19T14:02:47;44.70;28.60
18085;DHT22;9169;44.492;11.372;2023-09-19T14:05:16;44.40;29.00
18085;DHT22;9169;44.492;11.372;2023-09-19T14:07:46;44.30;29.20
18085;DHT22;9169;44.492;11.372;2023-09-19T14:10:14;44.20;29.30
18085;DHT22;9169;44.492;11.372;2023-09-19T14:12:45;44.00;29.30
18085;DHT22;9169;44.492;11.372;2023-09-19T14:15:14;43.70;29.40
18085;DHT22;9169;44.492;11.372;2023-09-19T14:17:44;43.20;29.40
18085;DHT22;9169;44.492;11.372;2023-09-19T14:20:13;42.80;29.60
18085;DHT22;9169;44.492;11.372;2023-09-19T14:22:44;42.40;29.80
18085;DHT22;9169;44.492;11.372;2023-09-19T14:25:13;41.90;30.00
18085;DHT22;9169;44.492;11.372;2023-09-19T14:27:43;41.50;30.30
18085;DHT22;9169;44.492;11.372;2023-09-19T14:30:13;41.10;30.60
18085;DHT22;9169;44.492;11.372;2023-09-19T14:32:41;40.70;30.80
18085;DHT22;9169;44.492;11.372;2023-09-19T14:35:13;40.40;31.20
18085;DHT22;9169;44.492;11.372;2023-09-19T14:37:42;40.00;31.30
18085;DHT22;9169;44.492;11.372;2023-09-19T14:40:13;39.60;31.30
18085;DHT22;9169;44.492;11.372;2023-09-19T14:42:44;39.30;31.70
18085;DHT22;9169;44.492;11.372;2023-09-19T14:45:17;39.00;32.20
18085;DHT22;9169;44.492;11.372;2023-09-19T14:47:47;38.70;32.50
18085;DHT22;9169;44.492;11.372;2023-09-19T14:50:17;38.50;32.80
18085;DHT22;9169;44.492;11.372;2023-09-19T14:52:45;38.30;33.10
18085;DHT22;9169;44.492;11.372;2023-09-19T14:55:17;38.20;33.30
18085;DHT22;9169;44.492;11.372;2023-09-19T14:57:49;38.00;34.00
18085;DHT22;9169;44.492;11.372;2023-09-19T15:00:19;37.90;33.50
18085;DHT22;9169;44.492;11.372;2023-09-19T15:02:50;37.70;33.70
18085;DHT22;9169;44.492;11.372;2023-09-19T15:05:21;37.60;33.80
18085;DHT22;9169;44.492;11.372;2023-09-19T15:07:50;37.40;33.80
18085;DHT22;9169;44.492;11.372;2023-09-19T15:10:18;37.20;33.90
18085;DHT22;9169;44.492;11.372;2023-09-19T15:12:47;37.00;34.20
18085;DHT22;9169;44.492;11.372;2023-09-19T15:15:16;36.90;34.50
18085;DHT22;9169;44.492;11.372;2023-09-19T15:17:45;36.80;34.60
18085;DHT22;9169;44.492;11.372;2023-09-19T15:20:14;36.60;34.80
18085;DHT22;9169;44.492;11.372;2023-09-19T15:22:44;36.50;34.90
18085;DHT22;9169;44.492;11.372;2023-09-19T15:25:13;36.40;35.10
18085;DHT22;9169;44.492;11.372;2023-09-19T15:27:42;36.30;35.30
18085;DHT22;9169;44.492;11.372;2023-09-19T15:30:12;36.20;35.30
18085;DHT22;9169;44.492;11.372;2023-09-19T15:32:42;36.10;35.30
18085;DHT22;9169;44.492;11.372;2023-09-19T15:35:11;36.00;35.40
18085;DHT22;9169;44.492;11.372;2023-09-19T15:37:41;35.90;35.60
18085;DHT22;9169;44.492;11.372;2023-09-19T15:40:11;35.80;35.70
18085;DHT22;9169;44.492;11.372;2023-09-19T15:42:39;35.70;35.80
18085;DHT22;9169;44.492;11.372;2023-09-19T15:45:08;35.60;35.90
18085;DHT22;9169;44.492;11.372;2023-09-19T15:47:38;35.60;35.90
18085;DHT22;9169;44.492;11.372;2023-09-19T15:50:07;35.50;36.10
18085;DHT22;9169;44.492;11.372;2023-09-19T15:52:36;35.30;36.30
18085;DHT22;9169;44.492;11.372;2023-09-19T15:55:06;35.30;36.60
18085;DHT22;9169;44.492;11.372;2023-09-19T15:57:36;35.20;36.70
18085;DHT22;9169;44.492;11.372;2023-09-19T16:00:06;35.10;36.90
18085;DHT22;9169;44.492;11.372;2023-09-19T16:02:40;35.10;37.10
18085;DHT22;9169;44.492;11.372;2023-09-19T16:05:08;35.00;37.10
18085;DHT22;9169;44.492;11.372;2023-09-19T16:07:38;35.00;37.10